createdAt,value
2023-04-06T00:00:27.033Z,98814.97
2023-04-06T00:01:29.371Z,98825.16
2023-04-06T00:02:32.327Z,98830.25
2023-04-06T00:03:34.338Z,98821.75
2023-04-06T00:04:37.214Z,98824.31
2023-04-06T00:05:39.009Z,98827.72
2023-04-06T00:06:42.388Z,98832.00
2023-04-06T00:07:44.409Z,98828.59
2023-04-06T00:08:48.589Z,98825.16
2023-04-06T00:09:50.784Z,98823.50
2023-04-06T00:10:55.931Z,98819.28
2023-04-06T00:11:58.849Z,98830.41
2023-04-06T00:13:02.661Z,98823.63
2023-04-06T00:14:04.964Z,98825.34
2023-04-06T00:15:08.862Z,98819.38
2023-04-06T00:16:10.753Z,98821.00
2023-04-06T00:17:13.681Z,98820.16
2023-04-06T00:18:17.618Z,98822.72
2023-04-06T00:19:20.445Z,98821.06
2023-04-06T00:20:22.340Z,98821.09
2023-04-06T00:21:26.565Z,98815.13
2023-04-06T00:22:28.391Z,98816.16
2023-04-06T00:23:31.637Z,98816.25
2023-04-06T00:24:34.837Z,98812.06
2023-04-06T00:25:37.714Z,98814.69
2023-04-06T00:26:39.649Z,98812.13
2023-04-06T00:27:42.539Z,98815.56
2023-04-06T00:28:45.634Z,98813.94
2023-04-06T00:29:49.786Z,98819.13
2023-04-06T00:30:53.546Z,98810.66
2023-04-06T00:31:56.454Z,98816.75
2023-04-06T00:32:58.749Z,98810.88
2023-04-06T00:34:02.327Z,98814.34
2023-04-06T00:35:04.992Z,98813.59
2023-04-06T00:36:08.349Z,98810.34
2023-04-06T00:37:12.014Z,98813.81
2023-04-06T00:38:14.860Z,98807.13
2023-04-06T00:39:19.000Z,98807.31
2023-04-06T00:40:24.568Z,98809.25
2023-04-06T00:41:26.395Z,98807.78
2023-04-06T00:42:29.265Z,98802.81
2023-04-06T00:43:31.152Z,98809.78
2023-04-06T00:44:37.689Z,98804.00
2023-04-06T00:45:40.312Z,98807.47
2023-04-06T00:46:43.173Z,98805.78
2023-04-06T00:47:45.046Z,98797.28
2023-04-06T00:48:49.694Z,98800.75
2023-04-06T00:49:51.633Z,98793.19
2023-04-06T00:50:54.533Z,98797.50
2023-04-06T00:51:56.729Z,98798.38
2023-04-06T00:53:00.720Z,98802.69
2023-04-06T00:54:04.648Z,98797.63
2023-04-06T00:55:11.611Z,98804.50
2023-04-06T00:56:18.644Z,98787.63
2023-04-06T00:57:29.563Z,98792.84
2023-04-06T00:58:39.635Z,98801.44
2023-04-06T00:59:44.680Z,98793.91
2023-04-06T01:01:03.248Z,98801.75
2023-04-06T01:02:06.213Z,98795.91
2023-04-06T01:03:14.766Z,98800.22
2023-04-06T01:04:19.571Z,98804.56
2023-04-06T01:05:21.605Z,98802.22
2023-04-06T01:06:28.917Z,98800.66
2023-04-06T01:07:35.335Z,98801.69
2023-04-06T01:08:46.336Z,98812.09
2023-04-06T01:09:54.502Z,98808.81
2023-04-06T01:11:01.836Z,98809.78
2023-04-06T01:12:07.428Z,98806.53
2023-04-06T01:13:11.249Z,98809.19
2023-04-06T01:14:32.018Z,98805.91
2023-04-06T01:15:36.522Z,98807.66
2023-04-06T01:16:40.000Z,98798.41
2023-04-06T01:17:46.595Z,98799.38
2023-04-06T01:18:52.522Z,98807.94
2023-04-06T01:19:58.617Z,98801.13
2023-04-06T01:21:06.136Z,98807.03
2023-04-06T01:22:08.444Z,98804.44
2023-04-06T01:23:28.606Z,98805.28
2023-04-06T01:24:30.871Z,98799.28
2023-04-06T01:25:44.931Z,98807.88
2023-04-06T01:26:47.622Z,98807.91
2023-04-06T01:27:50.446Z,98813.13
2023-04-06T01:29:09.970Z,98804.69
2023-04-06T01:30:13.320Z,98803.91
2023-04-06T01:31:28.499Z,98808.28
2023-04-06T01:32:31.900Z,98804.09
2023-04-06T01:33:34.044Z,98807.56
2023-04-06T01:34:41.470Z,98803.38
2023-04-06T01:35:44.979Z,98805.22
2023-04-06T01:36:51.882Z,98805.25
2023-04-06T01:37:58.903Z,98796.00
2023-04-06T01:39:08.705Z,98798.59
2023-04-06T01:40:14.726Z,98798.66
2023-04-06T01:41:22.534Z,98801.31
2023-04-06T01:42:27.661Z,98798.88
2023-04-06T01:43:30.556Z,98791.25
2023-04-06T01:44:41.682Z,98794.72
2023-04-06T01:45:48.812Z,98799.88
2023-04-06T01:46:54.977Z,98796.56
2023-04-06T01:47:57.913Z,98789.84
2023-04-06T01:49:02.736Z,98789.84
2023-04-06T01:50:11.814Z,98789.06
2023-04-06T01:51:18.823Z,98789.13
2023-04-06T01:52:28.188Z,98792.56
2023-04-06T01:53:30.462Z,98796.81
2023-04-06T01:54:40.370Z,98786.72
2023-04-06T01:55:51.005Z,98796.97
2023-04-06T01:57:11.651Z,98789.34
2023-04-06T01:58:20.343Z,98795.38
2023-04-06T01:59:23.351Z,98791.16
2023-04-06T02:00:26.040Z,98786.06
2023-04-06T02:01:30.858Z,98782.72
2023-04-06T02:02:33.829Z,98787.00
2023-04-06T02:03:41.104Z,98786.16
2023-04-06T02:04:46.437Z,98791.25
2023-04-06T02:05:50.958Z,98789.56
2023-04-06T02:06:59.531Z,98792.16
2023-04-06T02:08:05.891Z,98784.59
2023-04-06T02:09:12.432Z,98784.66
2023-04-06T02:10:17.358Z,98784.66
2023-04-06T02:11:20.228Z,98781.31
2023-04-06T02:12:26.599Z,98784.72
2023-04-06T02:13:28.641Z,98784.75
2023-04-06T02:14:32.823Z,98789.09
2023-04-06T02:15:36.221Z,98780.66
2023-04-06T02:16:39.168Z,98779.88
2023-04-06T02:17:42.745Z,98779.88
2023-04-06T02:18:46.201Z,98779.88
2023-04-06T02:19:48.065Z,98782.41
2023-04-06T02:20:51.086Z,98774.78
2023-04-06T02:21:53.098Z,98782.41
2023-04-06T02:22:55.945Z,98779.06
2023-04-06T02:23:57.905Z,98784.19
2023-04-06T02:25:01.343Z,98771.50
2023-04-06T02:26:06.223Z,98778.31
2023-04-06T02:27:09.949Z,98781.75
2023-04-06T02:28:12.780Z,98779.25
2023-04-06T02:29:14.637Z,98782.66
2023-04-06T02:30:19.505Z,98780.13
2023-04-06T02:31:21.701Z,98781.09
2023-04-06T02:32:25.023Z,98775.28
2023-04-06T02:33:27.207Z,98782.16
2023-04-06T02:34:30.901Z,98784.75
2023-04-06T02:35:33.112Z,98778.81
2023-04-06T02:36:36.289Z,98778.03
2023-04-06T02:37:38.150Z,98782.34
2023-04-06T02:38:40.967Z,98777.28
2023-04-06T02:39:43.097Z,98784.97
2023-04-06T02:40:46.110Z,98783.38
2023-04-06T02:41:56.319Z,98785.13
2023-04-06T02:43:02.289Z,98779.25
2023-04-06T02:44:08.541Z,98776.72
2023-04-06T02:45:19.049Z,98785.28
2023-04-06T02:46:23.655Z,98787.84
2023-04-06T02:47:27.030Z,98787.88
2023-04-06T02:48:28.986Z,98782.84
2023-04-06T02:49:31.876Z,98778.66
2023-04-06T02:50:34.919Z,98787.22
2023-04-06T02:51:41.175Z,98788.97
2023-04-06T02:53:05.483Z,98785.59
2023-04-06T02:54:09.322Z,98789.00
2023-04-06T02:55:11.523Z,98791.56
2023-04-06T02:56:14.631Z,98798.38
2023-04-06T02:57:25.133Z,98796.81
2023-04-06T02:58:27.960Z,98789.25
2023-04-06T02:59:32.490Z,98796.97
2023-04-06T03:00:45.461Z,98792.75
2023-04-06T03:01:47.517Z,98797.03
2023-04-06T03:02:50.640Z,98794.47
2023-04-06T03:03:53.788Z,98790.25
2023-04-06T03:05:01.451Z,98796.22
2023-04-06T03:06:09.590Z,98792.00
2023-04-06T03:07:13.092Z,98795.44
2023-04-06T03:08:15.579Z,98797.22
2023-04-06T03:09:21.188Z,98798.16
2023-04-06T03:10:23.048Z,98796.56
2023-04-06T03:11:27.434Z,98805.03
2023-04-06T03:12:32.096Z,98794.84
2023-04-06T03:13:56.354Z,98798.28
2023-04-06T03:14:58.236Z,98796.56
2023-04-06T03:16:02.093Z,98800.81
2023-04-06T03:17:04.743Z,98793.22
2023-04-06T03:18:07.894Z,98790.72
2023-04-06T03:19:15.481Z,98789.97
2023-04-06T03:20:19.011Z,98795.16
2023-04-06T03:21:20.906Z,98796.00
2023-04-06T03:22:28.767Z,98802.78
2023-04-06T03:23:32.725Z,98793.44
2023-04-06T03:24:37.594Z,98795.06
2023-04-06T03:25:41.245Z,98796.72
2023-04-06T03:26:46.766Z,98792.47
2023-04-06T03:27:51.395Z,98794.19
2023-04-06T03:28:57.153Z,98790.81
2023-04-06T03:30:03.923Z,98797.56
2023-04-06T03:31:10.836Z,98795.91
2023-04-06T03:32:42.595Z,98789.13
2023-04-06T03:33:44.482Z,98796.00
2023-04-06T03:34:53.561Z,98795.25
2023-04-06T03:35:55.942Z,98796.22
2023-04-06T03:37:09.768Z,98793.75
2023-04-06T03:38:19.346Z,98802.31
2023-04-06T03:39:22.163Z,98801.44
2023-04-06T03:40:25.572Z,98797.19
2023-04-06T03:41:30.597Z,98799.72
2023-04-06T03:42:40.745Z,98798.88
2023-04-06T03:43:50.886Z,98806.50
2023-04-06T03:44:58.529Z,98806.50
2023-04-06T03:46:02.107Z,98806.47
2023-04-06T03:47:04.103Z,98804.78
2023-04-06T03:48:08.098Z,98803.94
2023-04-06T03:49:12.616Z,98803.84
2023-04-06T03:50:17.358Z,98801.28
2023-04-06T03:51:24.618Z,98800.44
2023-04-06T03:52:27.574Z,98804.72
2023-04-06T03:53:29.639Z,98804.75
2023-04-06T03:54:32.552Z,98801.44
2023-04-06T03:55:34.502Z,98803.97
2023-04-06T03:56:37.776Z,98803.97
2023-04-06T03:57:40.640Z,98803.94
2023-04-06T03:58:45.523Z,98809.00
2023-04-06T03:59:48.717Z,98802.16
2023-04-06T04:00:51.627Z,98805.53
2023-04-06T04:01:54.510Z,98805.53
2023-04-06T04:02:57.427Z,98802.94
2023-04-06T04:03:59.882Z,98801.22
2023-04-06T04:05:03.000Z,98804.66
2023-04-06T04:06:04.906Z,98803.78
2023-04-06T04:07:10.444Z,98808.91
2023-04-06T04:08:12.310Z,98810.66
2023-04-06T04:09:15.289Z,98819.19
2023-04-06T04:10:18.525Z,98811.63
2023-04-06T04:11:21.508Z,98815.88
2023-04-06T04:12:31.708Z,98813.34
2023-04-06T04:13:35.283Z,98810.03
2023-04-06T04:14:40.121Z,98813.44
2023-04-06T04:15:44.340Z,98816.84
2023-04-06T04:16:47.102Z,98810.88
2023-04-06T04:17:51.890Z,98810.84
2023-04-06T04:18:53.901Z,98813.34
2023-04-06T04:19:59.868Z,98806.50
2023-04-06T04:21:01.786Z,98808.16
2023-04-06T04:22:05.815Z,98803.00
2023-04-06T04:23:11.795Z,98809.78
2023-04-06T04:24:14.999Z,98807.16
2023-04-06T04:25:16.982Z,98807.97
2023-04-06T04:26:24.689Z,98803.66
2023-04-06T04:27:26.705Z,98805.31
2023-04-06T04:28:29.616Z,98807.03
2023-04-06T04:29:33.801Z,98801.09
2023-04-06T04:30:42.146Z,98802.78
2023-04-06T04:31:47.936Z,98805.25
2023-04-06T04:32:56.621Z,98797.53
2023-04-06T04:34:02.728Z,98803.38
2023-04-06T04:35:09.603Z,98804.16
2023-04-06T04:36:14.974Z,98808.28
2023-04-06T04:37:19.971Z,98809.06
2023-04-06T04:38:26.204Z,98807.28
2023-04-06T04:39:32.202Z,98808.03
2023-04-06T04:40:38.778Z,98811.25
2023-04-06T04:41:48.198Z,98809.38
2023-04-06T04:42:52.393Z,98803.28
2023-04-06T04:44:02.669Z,98805.66
2023-04-06T04:45:08.686Z,98804.63
2023-04-06T04:46:15.520Z,98801.09
2023-04-06T04:47:20.240Z,98796.66
2023-04-06T04:48:24.524Z,98793.13
2023-04-06T04:49:31.303Z,98792.16
2023-04-06T04:50:34.434Z,98798.84
2023-04-06T04:51:37.421Z,98794.47
2023-04-06T04:52:46.004Z,98795.22
2023-04-06T04:53:55.401Z,98793.25
2023-04-06T04:55:02.618Z,98797.31
2023-04-06T04:56:10.712Z,98802.25
2023-04-06T04:57:13.638Z,98797.72
2023-04-06T04:58:17.702Z,98800.03
2023-04-06T04:59:31.879Z,98792.06
2023-04-06T05:00:40.568Z,98794.38
2023-04-06T05:01:54.321Z,98805.13
2023-04-06T05:03:07.807Z,98792.81
2023-04-06T05:04:13.842Z,98791.63
2023-04-06T05:05:16.384Z,98797.19
2023-04-06T05:06:20.287Z,98801.09
2023-04-06T05:07:22.504Z,98793.13
2023-04-06T05:08:26.643Z,98790.25
2023-04-06T05:09:31.034Z,98787.38
2023-04-06T05:10:34.254Z,98794.84
2023-04-06T05:11:38.182Z,98793.81
2023-04-06T05:12:41.337Z,98786.75
2023-04-06T05:13:45.787Z,98789.06
2023-04-06T05:14:53.426Z,98785.38
2023-04-06T05:15:57.516Z,98783.38
2023-04-06T05:17:04.458Z,98782.19
2023-04-06T05:18:08.222Z,98783.59
2023-04-06T05:19:12.487Z,98785.88
2023-04-06T05:20:19.687Z,98791.59
2023-04-06T05:21:27.186Z,98792.16
2023-04-06T05:22:36.645Z,98792.81
2023-04-06T05:23:43.018Z,98799.31
2023-04-06T05:24:46.176Z,98799.00
2023-04-06T05:25:51.217Z,98799.63
2023-04-06T05:26:57.915Z,98803.69
2023-04-06T05:28:00.251Z,98796.66
2023-04-06T05:29:07.437Z,98798.94
2023-04-06T05:30:12.879Z,98792.66
2023-04-06T05:31:20.529Z,98800.03
2023-04-06T05:32:25.798Z,98794.69
2023-04-06T05:33:30.735Z,98794.50
2023-04-06T05:34:38.559Z,98794.94
2023-04-06T05:35:43.841Z,98790.22
2023-04-06T05:36:48.319Z,98789.00
2023-04-06T05:37:57.500Z,98788.66
2023-04-06T05:39:01.567Z,98790.81
2023-04-06T05:40:32.075Z,98784.59
2023-04-06T05:41:34.986Z,98789.47
2023-04-06T05:42:38.803Z,98780.75
2023-04-06T05:43:41.001Z,98784.81
2023-04-06T05:44:44.330Z,98782.06
2023-04-06T05:45:50.284Z,98785.09
2023-04-06T05:46:53.194Z,98775.28
2023-04-06T05:47:58.622Z,98778.25
2023-04-06T05:49:07.110Z,98770.94
2023-04-06T05:50:11.188Z,98774.78
2023-04-06T05:51:19.049Z,98777.72
2023-04-06T05:52:23.855Z,98778.88
2023-04-06T05:53:27.632Z,98781.69
2023-04-06T05:54:33.052Z,98773.28
2023-04-06T05:55:38.250Z,98773.59
2023-04-06T05:56:51.303Z,98775.59
2023-04-06T05:57:54.664Z,98769.22
2023-04-06T05:58:57.295Z,98766.28
2023-04-06T06:00:05.359Z,98771.00
2023-04-06T06:01:23.920Z,98771.41
2023-04-06T06:02:27.337Z,98773.56
2023-04-06T06:03:30.736Z,98770.47
2023-04-06T06:04:35.733Z,98774.19
2023-04-06T06:05:38.645Z,98780.56
2023-04-06T06:06:50.842Z,98773.16
2023-04-06T06:08:06.700Z,98771.03
2023-04-06T06:09:09.923Z,98774.06
2023-04-06T06:10:18.362Z,98773.00
2023-04-06T06:11:20.620Z,98770.19
2023-04-06T06:12:24.646Z,98774.97
2023-04-06T06:13:26.563Z,98763.53
2023-04-06T06:14:32.633Z,98760.56
2023-04-06T06:15:34.489Z,98770.31
2023-04-06T06:16:38.671Z,98765.53
2023-04-06T06:17:42.088Z,98769.16
2023-04-06T06:18:45.272Z,98758.91
2023-04-06T06:19:48.743Z,98761.22
2023-04-06T06:20:53.653Z,98766.38
2023-04-06T06:21:55.560Z,98759.44
2023-04-06T06:22:58.433Z,98764.69
2023-04-06T06:24:03.810Z,98762.16
2023-04-06T06:25:06.941Z,98764.13
2023-04-06T06:26:08.890Z,98764.84
2023-04-06T06:27:11.875Z,98765.06
2023-04-06T06:28:14.957Z,98763.59
2023-04-06T06:29:17.897Z,98767.88
2023-04-06T06:30:23.454Z,98769.28
2023-04-06T06:31:27.147Z,98764.75
2023-04-06T06:32:29.818Z,98762.91
2023-04-06T06:33:35.533Z,98762.63
2023-04-06T06:34:38.376Z,98762.50
2023-04-06T06:35:44.663Z,98755.03
2023-04-06T06:36:49.353Z,98759.41
2023-04-06T06:37:53.321Z,98762.69
2023-04-06T06:38:59.540Z,98764.16
2023-04-06T06:40:03.131Z,98761.81
2023-04-06T06:41:07.881Z,98753.91
2023-04-06T06:42:13.452Z,98763.28
2023-04-06T06:43:23.234Z,98754.75
2023-04-06T06:44:31.932Z,98756.63
2023-04-06T06:45:35.052Z,98763.47
2023-04-06T06:46:37.172Z,98759.09
2023-04-06T06:47:40.135Z,98763.03
2023-04-06T06:48:43.067Z,98764.84
2023-04-06T06:49:46.159Z,98758.72
2023-04-06T06:50:51.057Z,98754.03
2023-04-06T06:51:53.989Z,98760.06
2023-04-06T06:52:59.584Z,98757.25
2023-04-06T06:54:02.425Z,98764.63
2023-04-06T06:55:04.578Z,98761.84
2023-04-06T06:56:08.250Z,98762.75
2023-04-06T06:57:10.776Z,98756.13
2023-04-06T06:58:14.371Z,98753.97
2023-04-06T06:59:17.658Z,98759.75
2023-04-06T07:00:22.247Z,98763.91
2023-04-06T07:02:52.831Z,98770.41
2023-04-06T07:03:54.692Z,98761.28
2023-04-06T07:04:57.902Z,98768.31
2023-04-06T07:06:01.710Z,98777.53
2023-04-06T07:07:04.601Z,98767.66
2023-04-06T07:08:06.591Z,98768.28
2023-04-06T07:09:09.574Z,98765.50
2023-04-06T07:10:11.584Z,98766.94
2023-04-06T07:11:14.850Z,98765.31
2023-04-06T07:12:17.552Z,98767.09
2023-04-06T07:13:23.554Z,98768.78
2023-04-06T07:14:28.348Z,98770.28
2023-04-06T07:15:31.460Z,98765.47
2023-04-06T07:16:34.439Z,98758.81
2023-04-06T07:17:36.423Z,98761.91
2023-04-06T07:18:39.556Z,98772.81
2023-04-06T07:19:41.798Z,98764.59
2023-04-06T07:20:44.688Z,98767.00
2023-04-06T07:21:50.091Z,98775.28
2023-04-06T07:22:53.065Z,98769.00
2023-04-06T07:23:55.963Z,98767.69
2023-04-06T07:25:00.063Z,98766.38
2023-04-06T07:26:03.096Z,98769.34
2023-04-06T07:27:06.914Z,98765.25
2023-04-06T07:28:09.125Z,98770.06
2023-04-06T07:29:12.580Z,98765.22
2023-04-06T07:30:15.090Z,98777.50
2023-04-06T07:31:19.291Z,98763.81
2023-04-06T07:32:22.247Z,98774.09
2023-04-06T07:33:25.821Z,98768.81
2023-04-06T07:34:27.883Z,98771.31
2023-04-06T07:35:31.636Z,98762.16
2023-04-06T07:36:33.874Z,98772.03
2023-04-06T07:37:38.295Z,98770.53
2023-04-06T07:38:41.171Z,98770.78
2023-04-06T07:39:44.186Z,98775.13
2023-04-06T07:40:47.667Z,98772.13
2023-04-06T07:41:49.848Z,98773.69
2023-04-06T07:42:53.902Z,98770.84
2023-04-06T07:43:56.891Z,98769.00
2023-04-06T07:44:59.956Z,98762.72
2023-04-06T07:46:02.175Z,98770.38
2023-04-06T07:47:05.154Z,98765.22
2023-04-06T07:48:07.234Z,98766.16
2023-04-06T07:49:11.001Z,98763.66
2023-04-06T07:50:14.297Z,98775.09
2023-04-06T07:51:17.453Z,98770.94
2023-04-06T07:52:21.094Z,98778.75
2023-04-06T07:53:25.070Z,98770.94
2023-04-06T07:54:27.956Z,98769.66
2023-04-06T07:55:30.049Z,98767.63
2023-04-06T07:56:33.432Z,98764.88
2023-04-06T07:57:35.345Z,98774.19
2023-04-06T07:58:38.214Z,98766.34
2023-04-06T07:59:40.222Z,98776.88
2023-04-06T08:00:43.149Z,98757.47
2023-04-06T08:01:45.987Z,98782.75
2023-04-06T08:02:47.934Z,98773.59
2023-04-06T08:03:51.387Z,98774.78
2023-04-06T08:04:54.552Z,98774.03
2023-04-06T08:05:57.785Z,98774.19
2023-04-06T08:06:59.716Z,98785.47
2023-04-06T08:08:02.649Z,98772.69
2023-04-06T08:09:06.031Z,98775.47
2023-04-06T08:10:09.464Z,98766.06
2023-04-06T08:11:12.336Z,98766.06
2023-04-06T08:12:15.517Z,98774.56
2023-04-06T08:13:17.505Z,98768.66
2023-04-06T08:14:20.878Z,98770.47
2023-04-06T08:15:22.838Z,98765.31
2023-04-06T08:16:26.069Z,98766.22
2023-04-06T08:17:31.299Z,98768.91
2023-04-06T08:18:34.358Z,98768.72
2023-04-06T08:19:38.388Z,98772.91
2023-04-06T08:20:40.493Z,98772.69
2023-04-06T08:21:43.645Z,98770.97
2023-04-06T08:22:45.547Z,98763.97
2023-04-06T08:23:48.459Z,98766.63
2023-04-06T08:24:51.963Z,98769.38
2023-04-06T08:25:55.223Z,98759.88
2023-04-06T08:26:57.184Z,98769.22
2023-04-06T08:28:00.303Z,98773.28
2023-04-06T08:29:05.061Z,98768.69
2023-04-06T08:30:07.776Z,98763.09
2023-04-06T08:31:10.810Z,98772.34
2023-04-06T08:32:12.790Z,98770.66
2023-04-06T08:33:15.838Z,98762.63
2023-04-06T08:34:18.256Z,98760.34
2023-04-06T08:35:21.474Z,98758.16
2023-04-06T08:36:24.589Z,98762.03
2023-04-06T08:37:27.284Z,98767.22
2023-04-06T08:38:30.197Z,98763.91
2023-04-06T08:39:34.739Z,98765.72
2023-04-06T08:40:39.104Z,98759.66
2023-04-06T08:41:44.196Z,98761.41
2023-04-06T08:42:55.693Z,98757.91
2023-04-06T08:44:00.808Z,98756.88
2023-04-06T08:45:03.804Z,98756.72
2023-04-06T08:46:06.236Z,98757.16
2023-04-06T08:47:09.784Z,98754.31
2023-04-06T08:48:13.936Z,98752.38
2023-04-06T08:49:17.280Z,98751.47
2023-04-06T08:50:20.529Z,98747.47
2023-04-06T08:51:24.240Z,98746.09
2023-04-06T08:52:27.494Z,98752.38
2023-04-06T08:53:29.910Z,98754.84
2023-04-06T08:54:32.769Z,98750.13
2023-04-06T08:55:34.910Z,98754.97
2023-04-06T08:56:41.352Z,98748.50
2023-04-06T08:57:43.586Z,98758.41
2023-04-06T08:58:46.625Z,98742.56
2023-04-06T08:59:49.912Z,98733.81
2023-04-06T09:00:52.330Z,98732.88
2023-04-06T09:01:56.572Z,98736.84
2023-04-06T09:02:59.925Z,98734.72
2023-04-06T09:04:02.564Z,98736.13
2023-04-06T09:05:06.325Z,98733.97
2023-04-06T09:06:11.273Z,98731.81
2023-04-06T09:07:14.093Z,98724.31
2023-04-06T09:08:17.418Z,98727.59
2023-04-06T09:09:22.153Z,98719.50
2023-04-06T09:10:27.400Z,98721.31
2023-04-06T09:11:29.421Z,98725.38
2023-04-06T09:12:34.549Z,98725.25
2023-04-06T09:13:47.451Z,98723.41
2023-04-06T09:14:50.441Z,98726.84
2023-04-06T09:16:00.170Z,98724.97
2023-04-06T09:17:03.137Z,98724.25
2023-04-06T09:18:05.453Z,98728.59
2023-04-06T09:19:08.560Z,98723.13
2023-04-06T09:20:13.177Z,98720.16
2023-04-06T09:21:19.838Z,98723.50
2023-04-06T09:22:25.695Z,98730.69
2023-04-06T09:23:29.123Z,98725.41
2023-04-06T09:24:41.227Z,98717.63
2023-04-06T09:25:44.358Z,98717.19
2023-04-06T09:26:48.497Z,98721.03
2023-04-06T09:28:01.155Z,98725.69
2023-04-06T09:29:04.487Z,98719.78
2023-04-06T09:30:09.475Z,98718.13
2023-04-06T09:31:12.567Z,98719.47
2023-04-06T09:32:17.893Z,98717.00
2023-04-06T09:33:24.332Z,98716.97
2023-04-06T09:34:27.242Z,98710.03
2023-04-06T09:35:32.238Z,98706.91
2023-04-06T09:36:36.115Z,98711.59
2023-04-06T09:37:39.124Z,98707.53
2023-04-06T09:38:53.657Z,98705.31
2023-04-06T09:40:04.752Z,98701.78
2023-04-06T09:41:07.671Z,98705.44
2023-04-06T09:42:09.808Z,98704.69
2023-04-06T09:43:14.066Z,98700.03
2023-04-06T09:44:18.899Z,98697.31
2023-04-06T09:45:22.848Z,98695.56
2023-04-06T09:46:25.063Z,98699.41
2023-04-06T09:47:29.550Z,98700.34
2023-04-06T09:48:35.495Z,98696.53
2023-04-06T09:49:39.878Z,98693.69
2023-04-06T09:50:42.984Z,98697.22
2023-04-06T09:51:47.754Z,98681.38
2023-04-06T09:52:54.490Z,98692.88
2023-04-06T09:54:02.146Z,98692.03
2023-04-06T09:55:08.917Z,98686.34
2023-04-06T09:56:13.324Z,98687.09
2023-04-06T09:57:24.083Z,98681.22
2023-04-06T09:58:28.031Z,98686.47
2023-04-06T09:59:36.578Z,98696.63
2023-04-06T10:00:45.491Z,98693.94
2023-04-06T10:01:50.568Z,98689.78
2023-04-06T10:02:57.874Z,98701.44
2023-04-06T10:04:09.913Z,98700.09
2023-04-06T10:05:19.574Z,98704.00
2023-04-06T10:06:26.378Z,98695.00
2023-04-06T10:07:28.633Z,98697.06
2023-04-06T10:08:33.266Z,98686.16
2023-04-06T10:09:37.670Z,98686.50
2023-04-06T10:10:40.038Z,98688.53
2023-04-06T10:11:43.613Z,98678.28
2023-04-06T10:12:46.658Z,98686.69
2023-04-06T10:13:50.926Z,98688.56
2023-04-06T10:14:53.961Z,98688.34
2023-04-06T10:15:56.328Z,98682.63
2023-04-06T10:17:00.365Z,98677.72
2023-04-06T10:18:04.297Z,98686.75
2023-04-06T10:19:13.908Z,98683.13
2023-04-06T10:20:22.980Z,98678.75
2023-04-06T10:21:27.700Z,98677.59
2023-04-06T10:22:35.030Z,98676.53
2023-04-06T10:23:42.118Z,98675.38
2023-04-06T10:24:44.065Z,98673.31
2023-04-06T10:25:54.609Z,98682.97
2023-04-06T10:26:58.947Z,98666.16
2023-04-06T10:28:02.649Z,98674.38
2023-04-06T10:29:07.140Z,98668.09
2023-04-06T10:30:09.360Z,98671.91
2023-04-06T10:31:12.457Z,98665.31
2023-04-06T10:32:15.627Z,98677.53
2023-04-06T10:33:19.532Z,98676.81
2023-04-06T10:34:22.540Z,98668.22
2023-04-06T10:35:26.500Z,98665.72
2023-04-06T10:36:30.838Z,98662.63
2023-04-06T10:37:47.356Z,98670.50
2023-04-06T10:38:56.276Z,98664.91
2023-04-06T10:39:59.585Z,98672.88
2023-04-06T10:41:05.815Z,98666.16
2023-04-06T10:42:09.153Z,98660.03
2023-04-06T10:43:13.680Z,98663.25
2023-04-06T10:44:22.693Z,98663.75
2023-04-06T10:45:26.183Z,98655.25
2023-04-06T10:46:30.154Z,98662.50
2023-04-06T10:47:40.140Z,98656.91
2023-04-06T10:48:47.889Z,98658.88
2023-04-06T10:49:49.970Z,98657.47
2023-04-06T10:50:53.992Z,98661.19
2023-04-06T10:51:57.141Z,98651.13
2023-04-06T10:53:03.959Z,98650.59
2023-04-06T10:54:06.619Z,98649.78
2023-04-06T10:55:19.171Z,98650.41
2023-04-06T10:56:24.682Z,98650.50
2023-04-06T10:57:30.253Z,98655.59
2023-04-06T10:58:32.248Z,98649.25
2023-04-06T10:59:36.583Z,98653.09
2023-04-06T11:01:50.610Z,98652.78
2023-04-06T11:02:53.342Z,98661.28
2023-04-06T11:04:00.124Z,98648.50
2023-04-06T11:05:03.447Z,98645.59
2023-04-06T11:06:06.921Z,98644.25
2023-04-06T11:07:08.837Z,98642.19
2023-04-06T11:08:11.678Z,98639.28
2023-04-06T11:09:25.807Z,98651.19
2023-04-06T11:10:30.876Z,98647.97
2023-04-06T11:11:32.770Z,98640.19
2023-04-06T11:12:36.058Z,98646.31
2023-04-06T11:13:43.015Z,98651.63
2023-04-06T11:14:57.028Z,98643.84
2023-04-06T11:15:58.980Z,98640.41
2023-04-06T11:17:01.928Z,98638.31
2023-04-06T11:18:04.994Z,98638.72
2023-04-06T11:19:08.099Z,98644.53
2023-04-06T11:20:12.282Z,98644.75
2023-04-06T11:21:15.161Z,98647.66
2023-04-06T11:22:17.483Z,98643.53
2023-04-06T11:23:27.372Z,98640.91
2023-04-06T11:24:29.222Z,98643.28
2023-04-06T11:25:33.622Z,98641.19
2023-04-06T11:26:40.327Z,98655.75
2023-04-06T11:27:43.705Z,98646.31
2023-04-06T11:28:45.723Z,98644.13
2023-04-06T11:29:48.962Z,98638.53
2023-04-06T11:30:52.280Z,98640.72
2023-04-06T11:31:59.610Z,98635.84
2023-04-06T11:33:03.661Z,98649.84
2023-04-06T11:34:10.644Z,98640.72
2023-04-06T11:35:16.415Z,98633.16
2023-04-06T11:36:18.831Z,98643.31
2023-04-06T11:37:21.716Z,98634.41
2023-04-06T11:38:23.595Z,98636.88
2023-04-06T11:39:28.725Z,98632.53
2023-04-06T11:40:32.455Z,98630.66
2023-04-06T11:41:34.882Z,98628.91
2023-04-06T11:42:38.190Z,98614.28
2023-04-06T11:43:48.328Z,98634.63
2023-04-06T11:44:52.216Z,98639.31
2023-04-06T11:46:02.260Z,98634.00
2023-04-06T11:47:06.478Z,98630.25
2023-04-06T11:48:19.996Z,98636.16
2023-04-06T11:49:21.957Z,98628.38
2023-04-06T11:50:24.981Z,98627.75
2023-04-06T11:51:28.551Z,98633.69
2023-04-06T11:52:31.422Z,98634.41
2023-04-06T11:53:34.465Z,98631.69
2023-04-06T11:54:38.267Z,98628.19
2023-04-06T11:55:41.731Z,98641.34
2023-04-06T11:56:48.641Z,98629.44
2023-04-06T11:57:51.433Z,98632.44
2023-04-06T11:58:56.284Z,98637.09
2023-04-06T11:59:59.173Z,98624.88
2023-04-06T12:01:07.034Z,98616.16
2023-04-06T12:02:08.967Z,98638.97
2023-04-06T12:03:11.873Z,98632.56
2023-04-06T12:04:14.818Z,98631.38
2023-04-06T12:05:18.290Z,98630.13
2023-04-06T12:06:20.742Z,98630.44
2023-04-06T12:07:23.592Z,98630.84
2023-04-06T12:08:27.337Z,98628.72
2023-04-06T12:09:30.207Z,98634.31
2023-04-06T12:10:32.200Z,98634.81
2023-04-06T12:11:35.456Z,98630.03
2023-04-06T12:12:38.404Z,98633.66
2023-04-06T12:13:41.643Z,98632.19
2023-04-06T12:14:44.911Z,98631.00
2023-04-06T12:15:47.765Z,98621.16
2023-04-06T12:16:51.293Z,98632.75
2023-04-06T12:17:54.228Z,98628.97
2023-04-06T12:18:58.317Z,98622.44
2023-04-06T12:20:05.325Z,98627.06
2023-04-06T12:21:08.801Z,98626.63
2023-04-06T12:22:11.702Z,98619.25
2023-04-06T12:23:13.590Z,98618.78
2023-04-06T12:24:16.676Z,98617.63
2023-04-06T12:25:18.798Z,98619.09
2023-04-06T12:26:21.781Z,98618.63
2023-04-06T12:27:23.700Z,98625.09
2023-04-06T12:28:27.974Z,98624.56
2023-04-06T12:29:30.412Z,98625.56
2023-04-06T12:30:33.782Z,98621.25
2023-04-06T12:31:37.176Z,98625.28
2023-04-06T12:32:41.670Z,98615.78
2023-04-06T12:33:45.895Z,98616.16
2023-04-06T12:34:48.744Z,98614.88
2023-04-06T12:35:51.626Z,98617.81
2023-04-06T12:36:53.983Z,98621.59
2023-04-06T12:37:57.155Z,98622.72
2023-04-06T12:39:03.709Z,98615.88
2023-04-06T12:40:08.916Z,98612.38
2023-04-06T12:41:10.966Z,98613.09
2023-04-06T12:42:14.809Z,98617.06
2023-04-06T12:43:18.248Z,98611.84